PWSweather.com
Personal Weather Stations
Station Observations
BREEJEDURP
'sGravenzande, WestlandNL

'sGravenzandeWestlandNL

Lat: 52.00095260000001, Lon: 4.174256600000035

Elevation: 3

Station Type: Davis Vantage Pro2 Plus

www.breejedurp.nl

High Low Average
Temperature 41.7°F5.4°C 35.8°F2.1°C 38.6°F3.7°C
Dew Point 36.3°F2.4°C 33.6°F0.9°C 35.1°F1.7°C
Winds 10.0 mph 16.1 kmh Calm Calm 5.0 mph E8.0 kmh E
Wind Gusts 16.0 mph25.7 kmh 1.0 mph1.6 kmh 8.0 mph12.9 kmh
Humidity 93% 80% 87%
Pressure 30.18 in1022.0 mb 30.01 in1016.3 mb -
Precipitation 0.00 in0.0 mm - -
Hour Temp Dew Point Humidity Winds Wind Gusts Pressure Precip Precip Rate Daily Precip Total
12:04 AM 37.4°F3.0°C 33.9°F1.1°C 87% 4.0 mph E6.4 kmh E 7.0 mph11.3 kmh 30.18 in1022.0 mb 0.00 in0.0 mm 0.00 in0.0 mm 0.00 in0.0 mm
12:09 AM 37.2°F2.9°C 34.0°F1.1°C 88% 4.0 mph ENE6.4 kmh ENE 6.0 mph9.7 kmh 30.18 in1022.0 mb 0.00 in0.0 mm 0.00 in0.0 mm 0.00 in0.0 mm
12:14 AM 37.2°F2.9°C 34.0°F1.1°C 88% 4.0 mph E6.4 kmh E 6.0 mph9.7 kmh 30.18 in1022.0 mb 0.00 in0.0 mm 0.00 in0.0 mm 0.00 in0.0 mm
12:19 AM 37.2°F2.9°C 34.0°F1.1°C 88% 2.0 mph E3.2 kmh E 3.0 mph4.8 kmh 30.18 in1022.0 mb 0.00 in0.0 mm 0.00 in0.0 mm 0.00 in0.0 mm
12:24 AM 37.2°F2.9°C 34.0°F1.1°C 88% 2.0 mph E3.2 kmh E 3.0 mph4.8 kmh 30.18 in1022.0 mb 0.00 in0.0 mm 0.00 in0.0 mm 0.00 in0.0 mm
12:29 AM 37.2°F2.9°C 34.0°F1.1°C 88% 2.0 mph E3.2 kmh E 5.0 mph8.0 kmh 30.18 in1022.0 mb 0.00 in0.0 mm 0.00 in0.0 mm 0.00 in0.0 mm
12:34 AM 37.2°F2.9°C 34.0°F1.1°C 88% 2.0 mph E3.2 kmh E 3.0 mph4.8 kmh 30.17 in1021.7 mb 0.00 in0.0 mm 0.00 in0.0 mm 0.00 in0.0 mm
12:39 AM 37.4°F3.0°C 34.2°F1.2°C 88% 4.0 mph E6.4 kmh E 7.0 mph11.3 kmh 30.17 in1021.7 mb 0.00 in0.0 mm 0.00 in0.0 mm 0.00 in0.0 mm
12:44 AM 37.4°F3.0°C 34.2°F1.2°C 88% 2.0 mph ESE3.2 kmh ESE 5.0 mph8.0 kmh 30.17 in1021.7 mb 0.00 in0.0 mm 0.00 in0.0 mm 0.00 in0.0 mm
12:49 AM 37.4°F3.0°C 34.2°F1.2°C 88% 3.0 mph E4.8 kmh E 6.0 mph9.7 kmh 30.17 in1021.7 mb 0.00 in0.0 mm 0.00 in0.0 mm 0.00 in0.0 mm
12:54 AM 37.4°F3.0°C 34.2°F1.2°C 88% 3.0 mph E4.8 kmh E 8.0 mph12.9 kmh 30.17 in1021.7 mb 0.00 in0.0 mm 0.00 in0.0 mm 0.00 in0.0 mm
12:59 AM 37.6°F3.1°C 34.1°F1.2°C 87% 3.0 mph ENE4.8 kmh ENE 5.0 mph8.0 kmh 30.17 in1021.7 mb 0.00 in0.0 mm 0.00 in0.0 mm 0.00 in0.0 mm
01:04 AM 37.6°F3.1°C 34.1°F1.2°C 87% 3.0 mph ENE4.8 kmh ENE 6.0 mph9.7 kmh 30.17 in1021.7 mb 0.00 in0.0 mm 0.00 in0.0 mm 0.00 in0.0 mm
01:09 AM 37.6°F3.1°C 34.1°F1.2°C 87% 3.0 mph ENE4.8 kmh ENE 4.0 mph6.4 kmh 30.17 in1021.7 mb 0.00 in0.0 mm 0.00 in0.0 mm 0.00 in0.0 mm
01:14 AM 37.4°F3.0°C 33.9°F1.1°C 87% 5.0 mph E8.0 kmh E 8.0 mph12.9 kmh 30.16 in1021.3 mb 0.00 in0.0 mm 0.00 in0.0 mm 0.00 in0.0 mm
01:19 AM 37.6°F3.1°C 34.1°F1.2°C 87% 2.0 mph ENE3.2 kmh ENE 3.0 mph4.8 kmh 30.16 in1021.3 mb 0.00 in0.0 mm 0.00 in0.0 mm 0.00 in0.0 mm
01:24 AM 37.6°F3.1°C 34.1°F1.2°C 87% 5.0 mph ENE8.0 kmh ENE 8.0 mph12.9 kmh 30.16 in1021.3 mb 0.00 in0.0 mm 0.00 in0.0 mm 0.00 in0.0 mm
01:29 AM 37.6°F3.1°C 34.1°F1.2°C 87% 4.0 mph ENE6.4 kmh ENE 9.0 mph14.5 kmh 30.16 in1021.3 mb 0.00 in0.0 mm 0.00 in0.0 mm 0.00 in0.0 mm
01:34 AM 37.6°F3.1°C 34.4°F1.3°C 88% 4.0 mph ENE6.4 kmh ENE 7.0 mph11.3 kmh 30.16 in1021.3 mb 0.00 in0.0 mm 0.00 in0.0 mm 0.00 in0.0 mm
01:39 AM 37.6°F3.1°C 34.4°F1.3°C 88% 5.0 mph E8.0 kmh E 7.0 mph11.3 kmh 30.16 in1021.3 mb 0.00 in0.0 mm 0.00 in0.0 mm 0.00 in0.0 mm
01:44 AM 37.6°F3.1°C 34.4°F1.3°C 88% 4.0 mph ENE6.4 kmh ENE 7.0 mph11.3 kmh 30.16 in1021.3 mb 0.00 in0.0 mm 0.00 in0.0 mm 0.00 in0.0 mm
01:49 AM 37.6°F3.1°C 34.4°F1.3°C 88% 3.0 mph NE4.8 kmh NE 7.0 mph11.3 kmh 30.16 in1021.3 mb 0.00 in0.0 mm 0.00 in0.0 mm 0.00 in0.0 mm
01:54 AM 37.6°F3.1°C 34.6°F1.4°C 89% 6.0 mph ENE9.7 kmh ENE 9.0 mph14.5 kmh 30.16 in1021.3 mb 0.00 in0.0 mm 0.00 in0.0 mm 0.00 in0.0 mm
01:59 AM 37.6°F3.1°C 34.6°F1.4°C 89% 4.0 mph ENE6.4 kmh ENE 7.0 mph11.3 kmh 30.16 in1021.3 mb 0.00 in0.0 mm 0.00 in0.0 mm 0.00 in0.0 mm
02:04 AM 37.8°F3.2°C 34.8°F1.6°C 89% 5.0 mph NNE8.0 kmh NNE 8.0 mph12.9 kmh 30.15 in1021.0 mb 0.00 in0.0 mm 0.00 in0.0 mm 0.00 in0.0 mm
02:09 AM 37.8°F3.2°C 34.8°F1.6°C 89% 3.0 mph ENE4.8 kmh ENE 5.0 mph8.0 kmh 30.16 in1021.3 mb 0.00 in0.0 mm 0.00 in0.0 mm 0.00 in0.0 mm
02:14 AM 37.8°F3.2°C 34.8°F1.6°C 89% 4.0 mph ENE6.4 kmh ENE 8.0 mph12.9 kmh 30.15 in1021.0 mb 0.00 in0.0 mm 0.00 in0.0 mm 0.00 in0.0 mm
02:19 AM 37.8°F3.2°C 34.8°F1.6°C 89% 3.0 mph E4.8 kmh E 7.0 mph11.3 kmh 30.15 in1021.0 mb 0.00 in0.0 mm 0.00 in0.0 mm 0.00 in0.0 mm
02:24 AM 37.8°F3.2°C 34.8°F1.6°C 89% 6.0 mph ENE9.7 kmh ENE 10.0 mph16.1 kmh 30.15 in1021.0 mb 0.00 in0.0 mm 0.00 in0.0 mm 0.00 in0.0 mm
02:29 AM 37.9°F3.3°C 35.0°F1.7°C 89% 5.0 mph ENE8.0 kmh ENE 8.0 mph12.9 kmh 30.15 in1021.0 mb 0.00 in0.0 mm 0.00 in0.0 mm 0.00 in0.0 mm
02:34 AM 37.9°F3.3°C 35.0°F1.7°C 89% 3.0 mph E4.8 kmh E 6.0 mph9.7 kmh 30.15 in1021.0 mb 0.00 in0.0 mm 0.00 in0.0 mm 0.00 in0.0 mm
02:39 AM 37.9°F3.3°C 35.0°F1.7°C 89% 4.0 mph ENE6.4 kmh ENE 7.0 mph11.3 kmh 30.15 in1021.0 mb 0.00 in0.0 mm 0.00 in0.0 mm 0.00 in0.0 mm
02:44 AM 38.1°F3.4°C 35.2°F1.8°C 89% 4.0 mph NE6.4 kmh NE 7.0 mph11.3 kmh 30.15 in1021.0 mb 0.00 in0.0 mm 0.00 in0.0 mm 0.00 in0.0 mm
02:49 AM 38.1°F3.4°C 35.2°F1.8°C 89% 7.0 mph ENE11.3 kmh ENE 9.0 mph14.5 kmh 30.15 in1021.0 mb 0.00 in0.0 mm 0.00 in0.0 mm 0.00 in0.0 mm
02:54 AM 38.1°F3.4°C 35.2°F1.8°C 89% 3.0 mph ENE4.8 kmh ENE 4.0 mph6.4 kmh 30.16 in1021.3 mb 0.00 in0.0 mm 0.00 in0.0 mm 0.00 in0.0 mm
02:59 AM 38.3°F3.5°C 35.4°F1.9°C 89% 5.0 mph ENE8.0 kmh ENE 7.0 mph11.3 kmh 30.16 in1021.3 mb 0.00 in0.0 mm 0.00 in0.0 mm 0.00 in0.0 mm
03:04 AM 38.5°F3.6°C 35.5°F1.9°C 89% 2.0 mph E3.2 kmh E 4.0 mph6.4 kmh 30.15 in1021.0 mb 0.00 in0.0 mm 0.00 in0.0 mm 0.00 in0.0 mm
03:09 AM 38.5°F3.6°C 35.2°F1.8°C 88% 3.0 mph E4.8 kmh E 5.0 mph8.0 kmh 30.15 in1021.0 mb 0.00 in0.0 mm 0.00 in0.0 mm 0.00 in0.0 mm
03:14 AM 38.5°F3.6°C 35.2°F1.8°C 88% 5.0 mph E8.0 kmh E 9.0 mph14.5 kmh 30.15 in1021.0 mb 0.00 in0.0 mm 0.00 in0.0 mm 0.00 in0.0 mm
03:19 AM 38.7°F3.7°C 35.4°F1.9°C 88% 6.0 mph E9.7 kmh E 11.0 mph17.7 kmh 30.15 in1021.0 mb 0.00 in0.0 mm 0.00 in0.0 mm 0.00 in0.0 mm
03:24 AM 38.7°F3.7°C 35.4°F1.9°C 88% 5.0 mph ENE8.0 kmh ENE 9.0 mph14.5 kmh 30.15 in1021.0 mb 0.00 in0.0 mm 0.00 in0.0 mm 0.00 in0.0 mm
03:29 AM 38.7°F3.7°C 35.4°F1.9°C 88% 2.0 mph E3.2 kmh E 3.0 mph4.8 kmh 30.15 in1021.0 mb 0.00 in0.0 mm 0.00 in0.0 mm 0.00 in0.0 mm
03:34 AM 38.7°F3.7°C 35.1°F1.7°C 87% 5.0 mph ENE8.0 kmh ENE 8.0 mph12.9 kmh 30.15 in1021.0 mb 0.00 in0.0 mm 0.00 in0.0 mm 0.00 in0.0 mm
03:39 AM 38.7°F3.7°C 35.1°F1.7°C 87% 7.0 mph ENE11.3 kmh ENE 10.0 mph16.1 kmh 30.15 in1021.0 mb 0.00 in0.0 mm 0.00 in0.0 mm 0.00 in0.0 mm
03:44 AM 38.8°F3.8°C 35.3°F1.8°C 87% 7.0 mph E11.3 kmh E 13.0 mph20.9 kmh 30.14 in1020.7 mb 0.00 in0.0 mm 0.00 in0.0 mm 0.00 in0.0 mm
03:49 AM 38.8°F3.8°C 35.3°F1.8°C 87% 8.0 mph ENE12.9 kmh ENE 10.0 mph16.1 kmh 30.14 in1020.7 mb 0.00 in0.0 mm 0.00 in0.0 mm 0.00 in0.0 mm
03:54 AM 38.8°F3.8°C 35.3°F1.8°C 87% 5.0 mph E8.0 kmh E 8.0 mph12.9 kmh 30.15 in1021.0 mb 0.00 in0.0 mm 0.00 in0.0 mm 0.00 in0.0 mm
03:59 AM 38.8°F3.8°C 35.3°F1.8°C 87% 5.0 mph ENE8.0 kmh ENE 10.0 mph16.1 kmh 30.15 in1021.0 mb 0.00 in0.0 mm 0.00 in0.0 mm 0.00 in0.0 mm
04:04 AM 38.7°F3.7°C 35.1°F1.7°C 87% 5.0 mph ENE8.0 kmh ENE 10.0 mph16.1 kmh 30.15 in1021.0 mb 0.00 in0.0 mm 0.00 in0.0 mm 0.00 in0.0 mm
04:09 AM 38.7°F3.7°C 35.1°F1.7°C 87% 6.0 mph ENE9.7 kmh ENE 9.0 mph14.5 kmh 30.15 in1021.0 mb 0.00 in0.0 mm 0.00 in0.0 mm 0.00 in0.0 mm
04:14 AM 38.7°F3.7°C 35.1°F1.7°C 87% 7.0 mph ENE11.3 kmh ENE 15.0 mph24.1 kmh 30.15 in1021.0 mb 0.00 in0.0 mm 0.00 in0.0 mm 0.00 in0.0 mm
04:19 AM 38.7°F3.7°C 35.1°F1.7°C 87% 7.0 mph ENE11.3 kmh ENE 10.0 mph16.1 kmh 30.14 in1020.7 mb 0.00 in0.0 mm 0.00 in0.0 mm 0.00 in0.0 mm
04:24 AM 38.7°F3.7°C 35.1°F1.7°C 87% 4.0 mph ENE6.4 kmh ENE 7.0 mph11.3 kmh 30.14 in1020.7 mb 0.00 in0.0 mm 0.00 in0.0 mm 0.00 in0.0 mm
04:29 AM 38.7°F3.7°C 35.1°F1.7°C 87% 9.0 mph E14.5 kmh E 12.0 mph19.3 kmh 30.14 in1020.7 mb 0.00 in0.0 mm 0.00 in0.0 mm 0.00 in0.0 mm
04:34 AM 38.7°F3.7°C 35.1°F1.7°C 87% 3.0 mph ENE4.8 kmh ENE 6.0 mph9.7 kmh 30.14 in1020.7 mb 0.00 in0.0 mm 0.00 in0.0 mm 0.00 in0.0 mm
04:39 AM 38.7°F3.7°C 34.8°F1.6°C 86% 4.0 mph NE6.4 kmh NE 5.0 mph8.0 kmh 30.14 in1020.7 mb 0.00 in0.0 mm 0.00 in0.0 mm 0.00 in0.0 mm
04:44 AM 38.7°F3.7°C 35.1°F1.7°C 87% 4.0 mph E6.4 kmh E 7.0 mph11.3 kmh 30.14 in1020.7 mb 0.00 in0.0 mm 0.00 in0.0 mm 0.00 in0.0 mm
04:49 AM 38.7°F3.7°C 35.1°F1.7°C 87% 4.0 mph ENE6.4 kmh ENE 7.0 mph11.3 kmh 30.14 in1020.7 mb 0.00 in0.0 mm 0.00 in0.0 mm 0.00 in0.0 mm
04:54 AM 38.7°F3.7°C 35.1°F1.7°C 87% 4.0 mph ENE6.4 kmh ENE 6.0 mph9.7 kmh 30.14 in1020.7 mb 0.00 in0.0 mm 0.00 in0.0 mm 0.00 in0.0 mm
04:59 AM 38.7°F3.7°C 35.1°F1.7°C 87% 5.0 mph ENE8.0 kmh ENE 9.0 mph14.5 kmh 30.14 in1020.7 mb 0.00 in0.0 mm 0.00 in0.0 mm 0.00 in0.0 mm
05:04 AM 38.7°F3.7°C 35.1°F1.7°C 87% 7.0 mph E11.3 kmh E 11.0 mph17.7 kmh 30.14 in1020.7 mb 0.00 in0.0 mm 0.00 in0.0 mm 0.00 in0.0 mm
05:09 AM 38.7°F3.7°C 34.8°F1.6°C 86% 3.0 mph E4.8 kmh E 7.0 mph11.3 kmh 30.14 in1020.7 mb 0.00 in0.0 mm 0.00 in0.0 mm 0.00 in0.0 mm
05:14 AM 38.7°F3.7°C 35.1°F1.7°C 87% 5.0 mph ENE8.0 kmh ENE 10.0 mph16.1 kmh 30.14 in1020.7 mb 0.00 in0.0 mm 0.00 in0.0 mm 0.00 in0.0 mm
05:19 AM 38.7°F3.7°C 35.1°F1.7°C 87% 5.0 mph ENE8.0 kmh ENE 11.0 mph17.7 kmh 30.14 in1020.7 mb 0.00 in0.0 mm 0.00 in0.0 mm 0.00 in0.0 mm
05:24 AM 38.7°F3.7°C 35.1°F1.7°C 87% 7.0 mph ENE11.3 kmh ENE 11.0 mph17.7 kmh 30.14 in1020.7 mb 0.00 in0.0 mm 0.00 in0.0 mm 0.00 in0.0 mm
05:29 AM 38.7°F3.7°C 35.1°F1.7°C 87% 7.0 mph ENE11.3 kmh ENE 13.0 mph20.9 kmh 30.14 in1020.7 mb 0.00 in0.0 mm 0.00 in0.0 mm 0.00 in0.0 mm
05:34 AM 38.8°F3.8°C 35.3°F1.8°C 87% 7.0 mph ENE11.3 kmh ENE 11.0 mph17.7 kmh 30.14 in1020.7 mb 0.00 in0.0 mm 0.00 in0.0 mm 0.00 in0.0 mm
05:39 AM 38.8°F3.8°C 35.3°F1.8°C 87% 3.0 mph E4.8 kmh E 5.0 mph8.0 kmh 30.14 in1020.7 mb 0.00 in0.0 mm 0.00 in0.0 mm 0.00 in0.0 mm
05:44 AM 38.8°F3.8°C 35.3°F1.8°C 87% 4.0 mph E6.4 kmh E 7.0 mph11.3 kmh 30.14 in1020.7 mb 0.00 in0.0 mm 0.00 in0.0 mm 0.00 in0.0 mm
05:49 AM 38.8°F3.8°C 35.3°F1.8°C 87% 7.0 mph ENE11.3 kmh ENE 10.0 mph16.1 kmh 30.13 in1020.3 mb 0.00 in0.0 mm 0.00 in0.0 mm 0.00 in0.0 mm
05:54 AM 38.8°F3.8°C 35.3°F1.8°C 87% 5.0 mph E8.0 kmh E 9.0 mph14.5 kmh 30.14 in1020.7 mb 0.00 in0.0 mm 0.00 in0.0 mm 0.00 in0.0 mm
05:59 AM 38.8°F3.8°C 35.3°F1.8°C 87% 6.0 mph E9.7 kmh E 9.0 mph14.5 kmh 30.14 in1020.7 mb 0.00 in0.0 mm 0.00 in0.0 mm 0.00 in0.0 mm
06:04 AM 38.8°F3.8°C 35.3°F1.8°C 87% 5.0 mph ENE8.0 kmh ENE 9.0 mph14.5 kmh 30.13 in1020.3 mb 0.00 in0.0 mm 0.00 in0.0 mm 0.00 in0.0 mm
06:09 AM 38.8°F3.8°C 35.3°F1.8°C 87% 8.0 mph E12.9 kmh E 13.0 mph20.9 kmh 30.13 in1020.3 mb 0.00 in0.0 mm 0.00 in0.0 mm 0.00 in0.0 mm
06:14 AM 38.8°F3.8°C 35.3°F1.8°C 87% 8.0 mph ENE12.9 kmh ENE 11.0 mph17.7 kmh 30.13 in1020.3 mb 0.00 in0.0 mm 0.00 in0.0 mm 0.00 in0.0 mm
06:19 AM 38.8°F3.8°C 35.3°F1.8°C 87% 6.0 mph ENE9.7 kmh ENE 11.0 mph17.7 kmh 30.14 in1020.7 mb 0.00 in0.0 mm 0.00 in0.0 mm 0.00 in0.0 mm
06:24 AM 38.8°F3.8°C 35.0°F1.7°C 86% 3.0 mph ESE4.8 kmh ESE 5.0 mph8.0 kmh 30.14 in1020.7 mb 0.00 in0.0 mm 0.00 in0.0 mm 0.00 in0.0 mm
06:29 AM 38.7°F3.7°C 35.1°F1.7°C 87% 5.0 mph E8.0 kmh E 8.0 mph12.9 kmh 30.14 in1020.7 mb 0.00 in0.0 mm 0.00 in0.0 mm 0.00 in0.0 mm
06:34 AM 38.7°F3.7°C 35.1°F1.7°C 87% 7.0 mph E11.3 kmh E 12.0 mph19.3 kmh 30.14 in1020.7 mb 0.00 in0.0 mm 0.00 in0.0 mm 0.00 in0.0 mm
06:39 AM 38.7°F3.7°C 35.1°F1.7°C 87% 3.0 mph E4.8 kmh E 5.0 mph8.0 kmh 30.14 in1020.7 mb 0.00 in0.0 mm 0.00 in0.0 mm 0.00 in0.0 mm
06:44 AM 38.7°F3.7°C 35.1°F1.7°C 87% 7.0 mph E11.3 kmh E 11.0 mph17.7 kmh 30.14 in1020.7 mb 0.00 in0.0 mm 0.00 in0.0 mm 0.00 in0.0 mm
06:49 AM 38.5°F3.6°C 35.0°F1.7°C 87% 6.0 mph E9.7 kmh E 10.0 mph16.1 kmh 30.14 in1020.7 mb 0.00 in0.0 mm 0.00 in0.0 mm 0.00 in0.0 mm
06:54 AM 38.5°F3.6°C 35.0°F1.7°C 87% 3.0 mph E4.8 kmh E 6.0 mph9.7 kmh 30.14 in1020.7 mb 0.00 in0.0 mm 0.00 in0.0 mm 0.00 in0.0 mm
06:59 AM 38.5°F3.6°C 35.0°F1.7°C 87% 5.0 mph E8.0 kmh E 8.0 mph12.9 kmh 30.14 in1020.7 mb 0.00 in0.0 mm 0.00 in0.0 mm 0.00 in0.0 mm
07:04 AM 38.5°F3.6°C 35.0°F1.7°C 87% 5.0 mph ENE8.0 kmh ENE 9.0 mph14.5 kmh 30.14 in1020.7 mb 0.00 in0.0 mm 0.00 in0.0 mm 0.00 in0.0 mm
07:09 AM 38.5°F3.6°C 35.0°F1.7°C 87% 4.0 mph E6.4 kmh E 7.0 mph11.3 kmh 30.14 in1020.7 mb 0.00 in0.0 mm 0.00 in0.0 mm 0.00 in0.0 mm
07:14 AM 38.5°F3.6°C 35.0°F1.7°C 87% 3.0 mph ESE4.8 kmh ESE 8.0 mph12.9 kmh 30.14 in1020.7 mb 0.00 in0.0 mm 0.00 in0.0 mm 0.00 in0.0 mm
07:19 AM 38.5°F3.6°C 35.0°F1.7°C 87% 6.0 mph ESE9.7 kmh ESE 10.0 mph16.1 kmh 30.14 in1020.7 mb 0.00 in0.0 mm 0.00 in0.0 mm 0.00 in0.0 mm
07:24 AM 38.5°F3.6°C 35.0°F1.7°C 87% 6.0 mph ENE9.7 kmh ENE 10.0 mph16.1 kmh 30.14 in1020.7 mb 0.00 in0.0 mm 0.00 in0.0 mm 0.00 in0.0 mm
07:29 AM 38.3°F3.5°C 34.8°F1.6°C 87% 5.0 mph ENE8.0 kmh ENE 8.0 mph12.9 kmh 30.14 in1020.7 mb 0.00 in0.0 mm 0.00 in0.0 mm 0.00 in0.0 mm
07:34 AM 38.3°F3.5°C 35.1°F1.7°C 88% 4.0 mph E6.4 kmh E 7.0 mph11.3 kmh 30.14 in1020.7 mb 0.00 in0.0 mm 0.00 in0.0 mm 0.00 in0.0 mm
07:39 AM 38.3°F3.5°C 35.1°F1.7°C 88% 3.0 mph E4.8 kmh E 6.0 mph9.7 kmh 30.14 in1020.7 mb 0.00 in0.0 mm 0.00 in0.0 mm 0.00 in0.0 mm
07:44 AM 38.3°F3.5°C 35.1°F1.7°C 88% 3.0 mph NE4.8 kmh NE 8.0 mph12.9 kmh 30.14 in1020.7 mb 0.00 in0.0 mm 0.00 in0.0 mm 0.00 in0.0 mm
07:49 AM 38.1°F3.4°C 34.9°F1.6°C 88% 6.0 mph ENE9.7 kmh ENE 10.0 mph16.1 kmh 30.14 in1020.7 mb 0.00 in0.0 mm 0.00 in0.0 mm 0.00 in0.0 mm
07:54 AM 38.1°F3.4°C 34.9°F1.6°C 88% 6.0 mph ENE9.7 kmh ENE 9.0 mph14.5 kmh 30.14 in1020.7 mb 0.00 in0.0 mm 0.00 in0.0 mm 0.00 in0.0 mm
07:59 AM 38.1°F3.4°C 34.9°F1.6°C 88% 3.0 mph ENE4.8 kmh ENE 5.0 mph8.0 kmh 30.14 in1020.7 mb 0.00 in0.0 mm 0.00 in0.0 mm 0.00 in0.0 mm
08:04 AM 38.1°F3.4°C 34.9°F1.6°C 88% 6.0 mph ENE9.7 kmh ENE 10.0 mph16.1 kmh 30.14 in1020.7 mb 0.00 in0.0 mm 0.00 in0.0 mm 0.00 in0.0 mm
08:09 AM 37.9°F3.3°C 34.7°F1.5°C 88% 5.0 mph E8.0 kmh E 9.0 mph14.5 kmh 30.14 in1020.7 mb 0.00 in0.0 mm 0.00 in0.0 mm 0.00 in0.0 mm
08:14 AM 37.8°F3.2°C 34.8°F1.6°C 89% 5.0 mph ENE8.0 kmh ENE 8.0 mph12.9 kmh 30.14 in1020.7 mb 0.00 in0.0 mm 0.00 in0.0 mm 0.00 in0.0 mm
08:19 AM 37.8°F3.2°C 34.8°F1.6°C 89% 3.0 mph E4.8 kmh E 6.0 mph9.7 kmh 30.14 in1020.7 mb 0.00 in0.0 mm 0.00 in0.0 mm 0.00 in0.0 mm
08:24 AM 37.8°F3.2°C 34.8°F1.6°C 89% 4.0 mph ENE6.4 kmh ENE 7.0 mph11.3 kmh 30.14 in1020.7 mb 0.00 in0.0 mm 0.00 in0.0 mm 0.00 in0.0 mm
08:29 AM 37.6°F3.1°C 34.6°F1.4°C 89% 6.0 mph ENE9.7 kmh ENE 12.0 mph19.3 kmh 30.14 in1020.7 mb 0.00 in0.0 mm 0.00 in0.0 mm 0.00 in0.0 mm
08:34 AM 37.6°F3.1°C 34.6°F1.4°C 89% 3.0 mph E4.8 kmh E 6.0 mph9.7 kmh 30.14 in1020.7 mb 0.00 in0.0 mm 0.00 in0.0 mm 0.00 in0.0 mm
08:39 AM 37.6°F3.1°C 34.6°F1.4°C 89% 4.0 mph ENE6.4 kmh ENE 5.0 mph8.0 kmh 30.13 in1020.3 mb 0.00 in0.0 mm 0.00 in0.0 mm 0.00 in0.0 mm
08:44 AM 37.4°F3.0°C 34.5°F1.4°C 89% 5.0 mph ENE8.0 kmh ENE 9.0 mph14.5 kmh 30.14 in1020.7 mb 0.00 in0.0 mm 0.00 in0.0 mm 0.00 in0.0 mm
08:49 AM 37.4°F3.0°C 34.5°F1.4°C 89% 8.0 mph E12.9 kmh E 11.0 mph17.7 kmh 30.14 in1020.7 mb 0.00 in0.0 mm 0.00 in0.0 mm 0.00 in0.0 mm
08:54 AM 37.4°F3.0°C 34.5°F1.4°C 89% 5.0 mph E8.0 kmh E 9.0 mph14.5 kmh 30.13 in1020.3 mb 0.00 in0.0 mm 0.00 in0.0 mm 0.00 in0.0 mm
08:59 AM 37.4°F3.0°C 34.5°F1.4°C 89% 3.0 mph E4.8 kmh E 5.0 mph8.0 kmh 30.14 in1020.7 mb 0.00 in0.0 mm 0.00 in0.0 mm 0.00 in0.0 mm
09:04 AM 37.4°F3.0°C 34.5°F1.4°C 89% 3.0 mph E4.8 kmh E 4.0 mph6.4 kmh 30.14 in1020.7 mb 0.00 in0.0 mm 0.00 in0.0 mm 0.00 in0.0 mm
09:09 AM 37.4°F3.0°C 34.5°F1.4°C 89% 4.0 mph ESE6.4 kmh ESE 7.0 mph11.3 kmh 30.14 in1020.7 mb 0.00 in0.0 mm 0.00 in0.0 mm 0.00 in0.0 mm
09:14 AM 37.2°F2.9°C 34.3°F1.3°C 89% 6.0 mph E9.7 kmh E 10.0 mph16.1 kmh 30.14 in1020.7 mb 0.00 in0.0 mm 0.00 in0.0 mm 0.00 in0.0 mm
09:19 AM 37.2°F2.9°C 34.3°F1.3°C 89% 3.0 mph SE4.8 kmh SE 4.0 mph6.4 kmh 30.14 in1020.7 mb 0.00 in0.0 mm 0.00 in0.0 mm 0.00 in0.0 mm
09:24 AM 37.0°F2.8°C 34.1°F1.2°C 89% 4.0 mph E6.4 kmh E 9.0 mph14.5 kmh 30.14 in1020.7 mb 0.00 in0.0 mm 0.00 in0.0 mm 0.00 in0.0 mm
09:29 AM 37.2°F2.9°C 34.3°F1.3°C 89% 6.0 mph E9.7 kmh E 9.0 mph14.5 kmh 30.14 in1020.7 mb 0.00 in0.0 mm 0.00 in0.0 mm 0.00 in0.0 mm
09:34 AM 37.2°F2.9°C 34.3°F1.3°C 89% 9.0 mph E14.5 kmh E 14.0 mph22.5 kmh 30.14 in1020.7 mb 0.00 in0.0 mm 0.00 in0.0 mm 0.00 in0.0 mm
09:39 AM 37.2°F2.9°C 34.3°F1.3°C 89% 3.0 mph ENE4.8 kmh ENE 5.0 mph8.0 kmh 30.14 in1020.7 mb 0.00 in0.0 mm 0.00 in0.0 mm 0.00 in0.0 mm
09:44 AM 37.2°F2.9°C 34.3°F1.3°C 89% 7.0 mph E11.3 kmh E 13.0 mph20.9 kmh 30.14 in1020.7 mb 0.00 in0.0 mm 0.00 in0.0 mm 0.00 in0.0 mm
09:49 AM 37.2°F2.9°C 34.3°F1.3°C 89% 6.0 mph E9.7 kmh E 10.0 mph16.1 kmh 30.14 in1020.7 mb 0.00 in0.0 mm 0.00 in0.0 mm 0.00 in0.0 mm
09:54 AM 37.2°F2.9°C 34.3°F1.3°C 89% 8.0 mph E12.9 kmh E 11.0 mph17.7 kmh 30.14 in1020.7 mb 0.00 in0.0 mm 0.00 in0.0 mm 0.00 in0.0 mm
09:59 AM 37.4°F3.0°C 34.2°F1.2°C 88% 4.0 mph E6.4 kmh E 8.0 mph12.9 kmh 30.14 in1020.7 mb 0.00 in0.0 mm 0.00 in0.0 mm 0.00 in0.0 mm
10:04 AM 37.4°F3.0°C 34.2°F1.2°C 88% 4.0 mph E6.4 kmh E 6.0 mph9.7 kmh 30.14 in1020.7 mb 0.00 in0.0 mm 0.00 in0.0 mm 0.00 in0.0 mm
10:09 AM 37.4°F3.0°C 34.2°F1.2°C 88% 5.0 mph ENE8.0 kmh ENE 8.0 mph12.9 kmh 30.14 in1020.7 mb 0.00 in0.0 mm 0.00 in0.0 mm 0.00 in0.0 mm
10:14 AM 37.6°F3.1°C 34.4°F1.3°C 88% 3.0 mph SE4.8 kmh SE 6.0 mph9.7 kmh 30.14 in1020.7 mb 0.00 in0.0 mm 0.00 in0.0 mm 0.00 in0.0 mm
10:19 AM 37.6°F3.1°C 34.4°F1.3°C 88% 6.0 mph E9.7 kmh E 13.0 mph20.9 kmh 30.14 in1020.7 mb 0.00 in0.0 mm 0.00 in0.0 mm 0.00 in0.0 mm
10:24 AM 37.6°F3.1°C 34.4°F1.3°C 88% 7.0 mph E11.3 kmh E 11.0 mph17.7 kmh 30.13 in1020.3 mb 0.00 in0.0 mm 0.00 in0.0 mm 0.00 in0.0 mm
10:29 AM 37.6°F3.1°C 34.4°F1.3°C 88% 8.0 mph E12.9 kmh E 16.0 mph25.7 kmh 30.14 in1020.7 mb 0.00 in0.0 mm 0.00 in0.0 mm 0.00 in0.0 mm
10:34 AM 37.8°F3.2°C 34.5°F1.4°C 88% 6.0 mph SE9.7 kmh SE 9.0 mph14.5 kmh 30.14 in1020.7 mb 0.00 in0.0 mm 0.00 in0.0 mm 0.00 in0.0 mm
10:39 AM 37.8°F3.2°C 34.5°F1.4°C 88% 7.0 mph E11.3 kmh E 9.0 mph14.5 kmh 30.14 in1020.7 mb 0.00 in0.0 mm 0.00 in0.0 mm 0.00 in0.0 mm
10:44 AM 37.8°F3.2°C 34.5°F1.4°C 88% 8.0 mph E12.9 kmh E 11.0 mph17.7 kmh 30.14 in1020.7 mb 0.00 in0.0 mm 0.00 in0.0 mm 0.00 in0.0 mm
10:49 AM 37.9°F3.3°C 34.7°F1.5°C 88% 6.0 mph E9.7 kmh E 11.0 mph17.7 kmh 30.14 in1020.7 mb 0.00 in0.0 mm 0.00 in0.0 mm 0.00 in0.0 mm
10:54 AM 38.1°F3.4°C 34.6°F1.4°C 87% 5.0 mph ESE8.0 kmh ESE 8.0 mph12.9 kmh 30.13 in1020.3 mb 0.00 in0.0 mm 0.00 in0.0 mm 0.00 in0.0 mm
10:59 AM 38.1°F3.4°C 34.6°F1.4°C 87% 4.0 mph ESE6.4 kmh ESE 7.0 mph11.3 kmh 30.13 in1020.3 mb 0.00 in0.0 mm 0.00 in0.0 mm 0.00 in0.0 mm
11:04 AM 38.3°F3.5°C 34.8°F1.6°C 87% 6.0 mph E9.7 kmh E 10.0 mph16.1 kmh 30.13 in1020.3 mb 0.00 in0.0 mm 0.00 in0.0 mm 0.00 in0.0 mm
11:09 AM 38.5°F3.6°C 35.0°F1.7°C 87% 4.0 mph SE6.4 kmh SE 7.0 mph11.3 kmh 30.13 in1020.3 mb 0.00 in0.0 mm 0.00 in0.0 mm 0.00 in0.0 mm
11:14 AM 38.7°F3.7°C 35.1°F1.7°C 87% 4.0 mph SE6.4 kmh SE 7.0 mph11.3 kmh 30.13 in1020.3 mb 0.00 in0.0 mm 0.00 in0.0 mm 0.00 in0.0 mm
11:19 AM 38.7°F3.7°C 34.8°F1.6°C 86% 8.0 mph E12.9 kmh E 12.0 mph19.3 kmh 30.13 in1020.3 mb 0.00 in0.0 mm 0.00 in0.0 mm 0.00 in0.0 mm
11:24 AM 38.7°F3.7°C 34.8°F1.6°C 86% 8.0 mph SE12.9 kmh SE 11.0 mph17.7 kmh 30.13 in1020.3 mb 0.00 in0.0 mm 0.00 in0.0 mm 0.00 in0.0 mm
11:29 AM 38.8°F3.8°C 35.0°F1.7°C 86% 6.0 mph ESE9.7 kmh ESE 9.0 mph14.5 kmh 30.12 in1020.0 mb 0.00 in0.0 mm 0.00 in0.0 mm 0.00 in0.0 mm
11:34 AM 39.0°F3.9°C 34.9°F1.6°C 85% 7.0 mph ESE11.3 kmh ESE 10.0 mph16.1 kmh 30.13 in1020.3 mb 0.00 in0.0 mm 0.00 in0.0 mm 0.00 in0.0 mm
11:39 AM 39.2°F4.0°C 35.1°F1.7°C 85% 5.0 mph E8.0 kmh E 8.0 mph12.9 kmh 30.12 in1020.0 mb 0.00 in0.0 mm 0.00 in0.0 mm 0.00 in0.0 mm
11:44 AM 39.2°F4.0°C 35.1°F1.7°C 85% 7.0 mph ESE11.3 kmh ESE 11.0 mph17.7 kmh 30.13 in1020.3 mb 0.00 in0.0 mm 0.00 in0.0 mm 0.00 in0.0 mm
11:49 AM 39.4°F4.1°C 35.3°F1.8°C 85% 9.0 mph SE14.5 kmh SE 12.0 mph19.3 kmh 30.13 in1020.3 mb 0.00 in0.0 mm 0.00 in0.0 mm 0.00 in0.0 mm
11:54 AM 39.4°F4.1°C 35.3°F1.8°C 85% 6.0 mph SE9.7 kmh SE 11.0 mph17.7 kmh 30.12 in1020.0 mb 0.00 in0.0 mm 0.00 in0.0 mm 0.00 in0.0 mm
11:59 AM 39.6°F4.2°C 35.4°F1.9°C 85% 6.0 mph E9.7 kmh E 8.0 mph12.9 kmh 30.12 in1020.0 mb 0.00 in0.0 mm 0.00 in0.0 mm 0.00 in0.0 mm
12:04 PM 39.7°F4.3°C 35.6°F2.0°C 85% 6.0 mph SE9.7 kmh SE 10.0 mph16.1 kmh 30.12 in1020.0 mb 0.00 in0.0 mm 0.00 in0.0 mm 0.00 in0.0 mm
12:09 PM 39.7°F4.3°C 35.6°F2.0°C 85% 6.0 mph ESE9.7 kmh ESE 9.0 mph14.5 kmh 30.12 in1020.0 mb 0.00 in0.0 mm 0.00 in0.0 mm 0.00 in0.0 mm
12:14 PM 39.7°F4.3°C 35.3°F1.8°C 84% 5.0 mph SE8.0 kmh SE 8.0 mph12.9 kmh 30.12 in1020.0 mb 0.00 in0.0 mm 0.00 in0.0 mm 0.00 in0.0 mm
12:19 PM 39.9°F4.4°C 35.5°F1.9°C 84% 7.0 mph ESE11.3 kmh ESE 9.0 mph14.5 kmh 30.12 in1020.0 mb 0.00 in0.0 mm 0.00 in0.0 mm 0.00 in0.0 mm
12:24 PM 40.1°F4.5°C 35.7°F2.1°C 84% 9.0 mph SE14.5 kmh SE 13.0 mph20.9 kmh 30.12 in1020.0 mb 0.00 in0.0 mm 0.00 in0.0 mm 0.00 in0.0 mm
12:29 PM 40.3°F4.6°C 35.8°F2.1°C 84% 7.0 mph ESE11.3 kmh ESE 9.0 mph14.5 kmh 30.11 in1019.6 mb 0.00 in0.0 mm 0.00 in0.0 mm 0.00 in0.0 mm
12:34 PM 40.3°F4.6°C 35.5°F1.9°C 83% 6.0 mph SE9.7 kmh SE 8.0 mph12.9 kmh 30.11 in1019.6 mb 0.00 in0.0 mm 0.00 in0.0 mm 0.00 in0.0 mm
12:39 PM 40.5°F4.7°C 35.7°F2.1°C 83% 6.0 mph ESE9.7 kmh ESE 10.0 mph16.1 kmh 30.11 in1019.6 mb 0.00 in0.0 mm 0.00 in0.0 mm 0.00 in0.0 mm
12:44 PM 40.6°F4.8°C 35.9°F2.2°C 83% 7.0 mph ESE11.3 kmh ESE 9.0 mph14.5 kmh 30.11 in1019.6 mb 0.00 in0.0 mm 0.00 in0.0 mm 0.00 in0.0 mm
12:49 PM 40.6°F4.8°C 35.6°F2.0°C 82% 8.0 mph ESE12.9 kmh ESE 15.0 mph24.1 kmh 30.11 in1019.6 mb 0.00 in0.0 mm 0.00 in0.0 mm 0.00 in0.0 mm
12:54 PM 40.6°F4.8°C 35.6°F2.0°C 82% 10.0 mph SE16.1 kmh SE 13.0 mph20.9 kmh 30.11 in1019.6 mb 0.00 in0.0 mm 0.00 in0.0 mm 0.00 in0.0 mm
12:59 PM 40.6°F4.8°C 35.6°F2.0°C 82% 7.0 mph SE11.3 kmh SE 12.0 mph19.3 kmh 30.10 in1019.3 mb 0.00 in0.0 mm 0.00 in0.0 mm 0.00 in0.0 mm
01:04 PM 40.6°F4.8°C 35.3°F1.8°C 81% 9.0 mph ESE14.5 kmh ESE 14.0 mph22.5 kmh 30.10 in1019.3 mb 0.00 in0.0 mm 0.00 in0.0 mm 0.00 in0.0 mm
01:09 PM 40.6°F4.8°C 35.6°F2.0°C 82% 9.0 mph ESE14.5 kmh ESE 10.0 mph16.1 kmh 30.11 in1019.6 mb 0.00 in0.0 mm 0.00 in0.0 mm 0.00 in0.0 mm
01:14 PM 40.8°F4.9°C 35.8°F2.1°C 82% 8.0 mph ESE12.9 kmh ESE 11.0 mph17.7 kmh 30.10 in1019.3 mb 0.00 in0.0 mm 0.00 in0.0 mm 0.00 in0.0 mm
01:19 PM 40.8°F4.9°C 35.5°F1.9°C 81% 7.0 mph ESE11.3 kmh ESE 9.0 mph14.5 kmh 30.10 in1019.3 mb 0.00 in0.0 mm 0.00 in0.0 mm 0.00 in0.0 mm
01:24 PM 40.8°F4.9°C 35.5°F1.9°C 81% 6.0 mph SE9.7 kmh SE 11.0 mph17.7 kmh 30.10 in1019.3 mb 0.00 in0.0 mm 0.00 in0.0 mm 0.00 in0.0 mm
01:29 PM 40.8°F4.9°C 35.5°F1.9°C 81% 7.0 mph ESE11.3 kmh ESE 10.0 mph16.1 kmh 30.10 in1019.3 mb 0.00 in0.0 mm 0.00 in0.0 mm 0.00 in0.0 mm
01:34 PM 41.0°F5.0°C 35.9°F2.2°C 82% 6.0 mph ESE9.7 kmh ESE 8.0 mph12.9 kmh 30.10 in1019.3 mb 0.00 in0.0 mm 0.00 in0.0 mm 0.00 in0.0 mm
01:39 PM 41.2°F5.1°C 35.8°F2.1°C 81% 9.0 mph SE14.5 kmh SE 11.0 mph17.7 kmh 30.09 in1019.0 mb 0.00 in0.0 mm 0.00 in0.0 mm 0.00 in0.0 mm
01:44 PM 41.2°F5.1°C 35.8°F2.1°C 81% 4.0 mph ENE6.4 kmh ENE 7.0 mph11.3 kmh 30.09 in1019.0 mb 0.00 in0.0 mm 0.00 in0.0 mm 0.00 in0.0 mm
01:49 PM 41.4°F5.2°C 36.0°F2.2°C 81% 5.0 mph E8.0 kmh E 7.0 mph11.3 kmh 30.09 in1019.0 mb 0.00 in0.0 mm 0.00 in0.0 mm 0.00 in0.0 mm
01:54 PM 41.4°F5.2°C 36.0°F2.2°C 81% 6.0 mph SE9.7 kmh SE 10.0 mph16.1 kmh 30.09 in1019.0 mb 0.00 in0.0 mm 0.00 in0.0 mm 0.00 in0.0 mm
01:59 PM 41.5°F5.3°C 35.8°F2.1°C 80% 4.0 mph E6.4 kmh E 7.0 mph11.3 kmh 30.09 in1019.0 mb 0.00 in0.0 mm 0.00 in0.0 mm 0.00 in0.0 mm
02:04 PM 41.5°F5.3°C 35.8°F2.1°C 80% 8.0 mph ESE12.9 kmh ESE 10.0 mph16.1 kmh 30.09 in1019.0 mb 0.00 in0.0 mm 0.00 in0.0 mm 0.00 in0.0 mm
02:09 PM 41.5°F5.3°C 35.8°F2.1°C 80% 7.0 mph ESE11.3 kmh ESE 10.0 mph16.1 kmh 30.09 in1019.0 mb 0.00 in0.0 mm 0.00 in0.0 mm 0.00 in0.0 mm
02:14 PM 41.5°F5.3°C 35.8°F2.1°C 80% 6.0 mph ESE9.7 kmh ESE 10.0 mph16.1 kmh 30.08 in1018.6 mb 0.00 in0.0 mm 0.00 in0.0 mm 0.00 in0.0 mm
02:19 PM 41.5°F5.3°C 35.8°F2.1°C 80% 4.0 mph SE6.4 kmh SE 7.0 mph11.3 kmh 30.09 in1019.0 mb 0.00 in0.0 mm 0.00 in0.0 mm 0.00 in0.0 mm
02:24 PM 41.7°F5.4°C 36.0°F2.2°C 80% 4.0 mph ESE6.4 kmh ESE 6.0 mph9.7 kmh 30.08 in1018.6 mb 0.00 in0.0 mm 0.00 in0.0 mm 0.00 in0.0 mm
02:29 PM 41.7°F5.4°C 36.0°F2.2°C 80% 5.0 mph SE8.0 kmh SE 7.0 mph11.3 kmh 30.08 in1018.6 mb 0.00 in0.0 mm 0.00 in0.0 mm 0.00 in0.0 mm
02:34 PM 41.7°F5.4°C 36.0°F2.2°C 80% 8.0 mph ESE12.9 kmh ESE 10.0 mph16.1 kmh 30.09 in1019.0 mb 0.00 in0.0 mm 0.00 in0.0 mm 0.00 in0.0 mm
02:39 PM 41.5°F5.3°C 35.8°F2.1°C 80% 3.0 mph E4.8 kmh E 7.0 mph11.3 kmh 30.08 in1018.6 mb 0.00 in0.0 mm 0.00 in0.0 mm 0.00 in0.0 mm
02:44 PM 41.5°F5.3°C 35.8°F2.1°C 80% 6.0 mph ESE9.7 kmh ESE 9.0 mph14.5 kmh 30.08 in1018.6 mb 0.00 in0.0 mm 0.00 in0.0 mm 0.00 in0.0 mm
02:49 PM 41.7°F5.4°C 36.0°F2.2°C 80% 5.0 mph SE8.0 kmh SE 8.0 mph12.9 kmh 30.08 in1018.6 mb 0.00 in0.0 mm 0.00 in0.0 mm 0.00 in0.0 mm
02:54 PM 41.5°F5.3°C 35.8°F2.1°C 80% 6.0 mph SE9.7 kmh SE 8.0 mph12.9 kmh 30.08 in1018.6 mb 0.00 in0.0 mm 0.00 in0.0 mm 0.00 in0.0 mm
02:59 PM 41.7°F5.4°C 36.0°F2.2°C 80% 7.0 mph ESE11.3 kmh ESE 10.0 mph16.1 kmh 30.08 in1018.6 mb 0.00 in0.0 mm 0.00 in0.0 mm 0.00 in0.0 mm
03:04 PM 41.7°F5.4°C 36.0°F2.2°C 80% 7.0 mph SE11.3 kmh SE 9.0 mph14.5 kmh 30.09 in1019.0 mb 0.00 in0.0 mm 0.00 in0.0 mm 0.00 in0.0 mm
03:09 PM 41.7°F5.4°C 36.0°F2.2°C 80% 6.0 mph ESE9.7 kmh ESE 8.0 mph12.9 kmh 30.09 in1019.0 mb 0.00 in0.0 mm 0.00 in0.0 mm 0.00 in0.0 mm
03:14 PM 41.7°F5.4°C 36.0°F2.2°C 80% 5.0 mph ESE8.0 kmh ESE 7.0 mph11.3 kmh 30.08 in1018.6 mb 0.00 in0.0 mm 0.00 in0.0 mm 0.00 in0.0 mm
03:19 PM 41.5°F5.3°C 35.8°F2.1°C 80% 6.0 mph ESE9.7 kmh ESE 9.0 mph14.5 kmh 30.08 in1018.6 mb 0.00 in0.0 mm 0.00 in0.0 mm 0.00 in0.0 mm
03:24 PM 41.7°F5.4°C 36.0°F2.2°C 80% 5.0 mph SE8.0 kmh SE 8.0 mph12.9 kmh 30.08 in1018.6 mb 0.00 in0.0 mm 0.00 in0.0 mm 0.00 in0.0 mm
03:29 PM 41.7°F5.4°C 36.3°F2.4°C 81% 6.0 mph ESE9.7 kmh ESE 10.0 mph16.1 kmh 30.08 in1018.6 mb 0.00 in0.0 mm 0.00 in0.0 mm 0.00 in0.0 mm
03:34 PM 41.7°F5.4°C 36.0°F2.2°C 80% 8.0 mph ESE12.9 kmh ESE 11.0 mph17.7 kmh 30.08 in1018.6 mb 0.00 in0.0 mm 0.00 in0.0 mm 0.00 in0.0 mm
03:39 PM 41.5°F5.3°C 35.8°F2.1°C 80% 9.0 mph ESE14.5 kmh ESE 12.0 mph19.3 kmh 30.08 in1018.6 mb 0.00 in0.0 mm 0.00 in0.0 mm 0.00 in0.0 mm
03:44 PM 41.5°F5.3°C 36.2°F2.3°C 81% 3.0 mph ESE4.8 kmh ESE 4.0 mph6.4 kmh 30.08 in1018.6 mb 0.00 in0.0 mm 0.00 in0.0 mm 0.00 in0.0 mm
03:49 PM 41.4°F5.2°C 36.0°F2.2°C 81% 5.0 mph ESE8.0 kmh ESE 8.0 mph12.9 kmh 30.08 in1018.6 mb 0.00 in0.0 mm 0.00 in0.0 mm 0.00 in0.0 mm
03:54 PM 41.4°F5.2°C 36.0°F2.2°C 81% 4.0 mph SE6.4 kmh SE 5.0 mph8.0 kmh 30.08 in1018.6 mb 0.00 in0.0 mm 0.00 in0.0 mm 0.00 in0.0 mm
03:59 PM 41.4°F5.2°C 36.3°F2.4°C 82% 4.0 mph E6.4 kmh E 5.0 mph8.0 kmh 30.08 in1018.6 mb 0.00 in0.0 mm 0.00 in0.0 mm 0.00 in0.0 mm
04:04 PM 41.2°F5.1°C 36.1°F2.3°C 82% 3.0 mph ESE4.8 kmh ESE 6.0 mph9.7 kmh 30.09 in1019.0 mb 0.00 in0.0 mm 0.00 in0.0 mm 0.00 in0.0 mm
04:09 PM 41.2°F5.1°C 36.1°F2.3°C 82% 7.0 mph ESE11.3 kmh ESE 8.0 mph12.9 kmh 30.08 in1018.6 mb 0.00 in0.0 mm 0.00 in0.0 mm 0.00 in0.0 mm
04:14 PM 41.2°F5.1°C 36.1°F2.3°C 82% 6.0 mph ESE9.7 kmh ESE 7.0 mph11.3 kmh 30.08 in1018.6 mb 0.00 in0.0 mm 0.00 in0.0 mm 0.00 in0.0 mm
04:19 PM 41.0°F5.0°C 36.2°F2.3°C 83% 6.0 mph ESE9.7 kmh ESE 10.0 mph16.1 kmh 30.08 in1018.6 mb 0.00 in0.0 mm 0.00 in0.0 mm 0.00 in0.0 mm
04:24 PM 41.0°F5.0°C 35.9°F2.2°C 82% 5.0 mph ESE8.0 kmh ESE 8.0 mph12.9 kmh 30.08 in1018.6 mb 0.00 in0.0 mm 0.00 in0.0 mm 0.00 in0.0 mm
04:29 PM 40.8°F4.9°C 36.1°F2.3°C 83% 6.0 mph SE9.7 kmh SE 8.0 mph12.9 kmh 30.08 in1018.6 mb 0.00 in0.0 mm 0.00 in0.0 mm 0.00 in0.0 mm
04:34 PM 40.8°F4.9°C 36.1°F2.3°C 83% 4.0 mph ESE6.4 kmh ESE 8.0 mph12.9 kmh 30.08 in1018.6 mb 0.00 in0.0 mm 0.00 in0.0 mm 0.00 in0.0 mm
04:39 PM 40.6°F4.8°C 35.9°F2.2°C 83% 5.0 mph ESE8.0 kmh ESE 8.0 mph12.9 kmh 30.08 in1018.6 mb 0.00 in0.0 mm 0.00 in0.0 mm 0.00 in0.0 mm
04:44 PM 40.5°F4.7°C 35.7°F2.1°C 83% 7.0 mph ESE11.3 kmh ESE 9.0 mph14.5 kmh 30.08 in1018.6 mb 0.00 in0.0 mm 0.00 in0.0 mm 0.00 in0.0 mm
04:49 PM 40.5°F4.7°C 36.0°F2.2°C 84% 4.0 mph ESE6.4 kmh ESE 7.0 mph11.3 kmh 30.07 in1018.3 mb 0.00 in0.0 mm 0.00 in0.0 mm 0.00 in0.0 mm
04:54 PM 40.3°F4.6°C 35.8°F2.1°C 84% 4.0 mph ESE6.4 kmh ESE 6.0 mph9.7 kmh 30.07 in1018.3 mb 0.00 in0.0 mm 0.00 in0.0 mm 0.00 in0.0 mm
04:59 PM 39.9°F4.4°C 35.5°F1.9°C 84% 4.0 mph ESE6.4 kmh ESE 7.0 mph11.3 kmh 30.07 in1018.3 mb 0.00 in0.0 mm 0.00 in0.0 mm 0.00 in0.0 mm
05:04 PM 39.9°F4.4°C 35.8°F2.1°C 85% 4.0 mph SE6.4 kmh SE 7.0 mph11.3 kmh 30.07 in1018.3 mb 0.00 in0.0 mm 0.00 in0.0 mm 0.00 in0.0 mm
05:09 PM 39.9°F4.4°C 35.8°F2.1°C 85% 4.0 mph ESE6.4 kmh ESE 6.0 mph9.7 kmh 30.07 in1018.3 mb 0.00 in0.0 mm 0.00 in0.0 mm 0.00 in0.0 mm
05:14 PM 39.7°F4.3°C 35.6°F2.0°C 85% 4.0 mph ESE6.4 kmh ESE 8.0 mph12.9 kmh 30.07 in1018.3 mb 0.00 in0.0 mm 0.00 in0.0 mm 0.00 in0.0 mm
05:19 PM 39.6°F4.2°C 35.4°F1.9°C 85% 4.0 mph SE6.4 kmh SE 5.0 mph8.0 kmh 30.07 in1018.3 mb 0.00 in0.0 mm 0.00 in0.0 mm 0.00 in0.0 mm
05:24 PM 39.4°F4.1°C 35.3°F1.8°C 85% 4.0 mph ESE6.4 kmh ESE 4.0 mph6.4 kmh 30.07 in1018.3 mb 0.00 in0.0 mm 0.00 in0.0 mm 0.00 in0.0 mm
05:29 PM 39.4°F4.1°C 35.6°F2.0°C 86% 4.0 mph ESE6.4 kmh ESE 4.0 mph6.4 kmh 30.07 in1018.3 mb 0.00 in0.0 mm 0.00 in0.0 mm 0.00 in0.0 mm
05:34 PM 39.4°F4.1°C 35.6°F2.0°C 86% 5.0 mph ESE8.0 kmh ESE 7.0 mph11.3 kmh 30.07 in1018.3 mb 0.00 in0.0 mm 0.00 in0.0 mm 0.00 in0.0 mm
05:39 PM 39.2°F4.0°C 35.4°F1.9°C 86% 3.0 mph ESE4.8 kmh ESE 5.0 mph8.0 kmh 30.07 in1018.3 mb 0.00 in0.0 mm 0.00 in0.0 mm 0.00 in0.0 mm
05:44 PM 39.0°F3.9°C 35.2°F1.8°C 86% 3.0 mph ESE4.8 kmh ESE 6.0 mph9.7 kmh 30.07 in1018.3 mb 0.00 in0.0 mm 0.00 in0.0 mm 0.00 in0.0 mm
05:49 PM 38.8°F3.8°C 35.0°F1.7°C 86% 3.0 mph ESE4.8 kmh ESE 4.0 mph6.4 kmh 30.07 in1018.3 mb 0.00 in0.0 mm 0.00 in0.0 mm 0.00 in0.0 mm
05:54 PM 38.8°F3.8°C 35.3°F1.8°C 87% 2.0 mph ESE3.2 kmh ESE 2.0 mph3.2 kmh 30.07 in1018.3 mb 0.00 in0.0 mm 0.00 in0.0 mm 0.00 in0.0 mm
05:59 PM 38.7°F3.7°C 35.1°F1.7°C 87% 3.0 mph ESE4.8 kmh ESE 4.0 mph6.4 kmh 30.07 in1018.3 mb 0.00 in0.0 mm 0.00 in0.0 mm 0.00 in0.0 mm
06:04 PM 38.7°F3.7°C 35.1°F1.7°C 87% 3.0 mph ESE4.8 kmh ESE 4.0 mph6.4 kmh 30.07 in1018.3 mb 0.00 in0.0 mm 0.00 in0.0 mm 0.00 in0.0 mm
06:09 PM 38.8°F3.8°C 35.3°F1.8°C 87% 4.0 mph ESE6.4 kmh ESE 6.0 mph9.7 kmh 30.07 in1018.3 mb 0.00 in0.0 mm 0.00 in0.0 mm 0.00 in0.0 mm
06:14 PM 38.7°F3.7°C 35.1°F1.7°C 87% 3.0 mph ESE4.8 kmh ESE 4.0 mph6.4 kmh 30.07 in1018.3 mb 0.00 in0.0 mm 0.00 in0.0 mm 0.00 in0.0 mm
06:19 PM 38.7°F3.7°C 35.1°F1.7°C 87% 3.0 mph ESE4.8 kmh ESE 4.0 mph6.4 kmh 30.06 in1017.9 mb 0.00 in0.0 mm 0.00 in0.0 mm 0.00 in0.0 mm
06:24 PM 38.5°F3.6°C 35.2°F1.8°C 88% 3.0 mph ESE4.8 kmh ESE 4.0 mph6.4 kmh 30.07 in1018.3 mb 0.00 in0.0 mm 0.00 in0.0 mm 0.00 in0.0 mm
06:29 PM 38.5°F3.6°C 35.2°F1.8°C 88% 3.0 mph ESE4.8 kmh ESE 4.0 mph6.4 kmh 30.07 in1018.3 mb 0.00 in0.0 mm 0.00 in0.0 mm 0.00 in0.0 mm
06:34 PM 38.3°F3.5°C 35.1°F1.7°C 88% 3.0 mph SE4.8 kmh SE 4.0 mph6.4 kmh 30.07 in1018.3 mb 0.00 in0.0 mm 0.00 in0.0 mm 0.00 in0.0 mm
06:39 PM 38.3°F3.5°C 35.1°F1.7°C 88% 3.0 mph ESE4.8 kmh ESE 4.0 mph6.4 kmh 30.06 in1017.9 mb 0.00 in0.0 mm 0.00 in0.0 mm 0.00 in0.0 mm
06:44 PM 38.3°F3.5°C 35.4°F1.9°C 89% 3.0 mph SE4.8 kmh SE 4.0 mph6.4 kmh 30.06 in1017.9 mb 0.00 in0.0 mm 0.00 in0.0 mm 0.00 in0.0 mm
06:49 PM 38.3°F3.5°C 35.1°F1.7°C 88% 4.0 mph E6.4 kmh E 5.0 mph8.0 kmh 30.06 in1017.9 mb 0.00 in0.0 mm 0.00 in0.0 mm 0.00 in0.0 mm
06:54 PM 38.1°F3.4°C 35.2°F1.8°C 89% 5.0 mph ESE8.0 kmh ESE 8.0 mph12.9 kmh 30.06 in1017.9 mb 0.00 in0.0 mm 0.00 in0.0 mm 0.00 in0.0 mm
06:59 PM 38.3°F3.5°C 35.4°F1.9°C 89% 4.0 mph ESE6.4 kmh ESE 6.0 mph9.7 kmh 30.05 in1017.6 mb 0.00 in0.0 mm 0.00 in0.0 mm 0.00 in0.0 mm
07:04 PM 38.3°F3.5°C 35.4°F1.9°C 89% 5.0 mph ESE8.0 kmh ESE 6.0 mph9.7 kmh 30.05 in1017.6 mb 0.00 in0.0 mm 0.00 in0.0 mm 0.00 in0.0 mm
07:09 PM 38.5°F3.6°C 35.2°F1.8°C 88% 7.0 mph ESE11.3 kmh ESE 10.0 mph16.1 kmh 30.05 in1017.6 mb 0.00 in0.0 mm 0.00 in0.0 mm 0.00 in0.0 mm
07:14 PM 38.5°F3.6°C 35.2°F1.8°C 88% 5.0 mph SE8.0 kmh SE 10.0 mph16.1 kmh 30.05 in1017.6 mb 0.00 in0.0 mm 0.00 in0.0 mm 0.00 in0.0 mm
07:19 PM 38.5°F3.6°C 35.2°F1.8°C 88% 3.0 mph ESE4.8 kmh ESE 4.0 mph6.4 kmh 30.05 in1017.6 mb 0.00 in0.0 mm 0.00 in0.0 mm 0.00 in0.0 mm
07:24 PM 38.5°F3.6°C 35.2°F1.8°C 88% 6.0 mph ESE9.7 kmh ESE 10.0 mph16.1 kmh 30.04 in1017.3 mb 0.00 in0.0 mm 0.00 in0.0 mm 0.00 in0.0 mm
07:29 PM 38.5°F3.6°C 35.2°F1.8°C 88% 3.0 mph ESE4.8 kmh ESE 6.0 mph9.7 kmh 30.05 in1017.6 mb 0.00 in0.0 mm 0.00 in0.0 mm 0.00 in0.0 mm
07:34 PM 38.5°F3.6°C 35.2°F1.8°C 88% 4.0 mph ESE6.4 kmh ESE 5.0 mph8.0 kmh 30.05 in1017.6 mb 0.00 in0.0 mm 0.00 in0.0 mm 0.00 in0.0 mm
07:39 PM 38.1°F3.4°C 34.9°F1.6°C 88% 4.0 mph ESE6.4 kmh ESE 6.0 mph9.7 kmh 30.04 in1017.3 mb 0.00 in0.0 mm 0.00 in0.0 mm 0.00 in0.0 mm
07:44 PM 38.1°F3.4°C 35.2°F1.8°C 89% 2.0 mph ESE3.2 kmh ESE 4.0 mph6.4 kmh 30.05 in1017.6 mb 0.00 in0.0 mm 0.00 in0.0 mm 0.00 in0.0 mm
07:49 PM 37.9°F3.3°C 35.0°F1.7°C 89% 3.0 mph ESE4.8 kmh ESE 4.0 mph6.4 kmh 30.04 in1017.3 mb 0.00 in0.0 mm 0.00 in0.0 mm 0.00 in0.0 mm
07:54 PM 37.9°F3.3°C 35.0°F1.7°C 89% 3.0 mph SE4.8 kmh SE 5.0 mph8.0 kmh 30.04 in1017.3 mb 0.00 in0.0 mm 0.00 in0.0 mm 0.00 in0.0 mm
07:59 PM 37.9°F3.3°C 35.0°F1.7°C 89% 4.0 mph ESE6.4 kmh ESE 5.0 mph8.0 kmh 30.05 in1017.6 mb 0.00 in0.0 mm 0.00 in0.0 mm 0.00 in0.0 mm
08:04 PM 37.9°F3.3°C 35.0°F1.7°C 89% 2.0 mph SE3.2 kmh SE 4.0 mph6.4 kmh 30.05 in1017.6 mb 0.00 in0.0 mm 0.00 in0.0 mm 0.00 in0.0 mm
08:09 PM 37.8°F3.2°C 34.8°F1.6°C 89% 3.0 mph ESE4.8 kmh ESE 4.0 mph6.4 kmh 30.05 in1017.6 mb 0.00 in0.0 mm 0.00 in0.0 mm 0.00 in0.0 mm
08:14 PM 37.8°F3.2°C 34.8°F1.6°C 89% 2.0 mph ESE3.2 kmh ESE 3.0 mph4.8 kmh 30.05 in1017.6 mb 0.00 in0.0 mm 0.00 in0.0 mm 0.00 in0.0 mm
08:19 PM 37.6°F3.1°C 34.6°F1.4°C 89% 2.0 mph SE3.2 kmh SE 3.0 mph4.8 kmh 30.05 in1017.6 mb 0.00 in0.0 mm 0.00 in0.0 mm 0.00 in0.0 mm
08:24 PM 37.2°F2.9°C 34.3°F1.3°C 89% 2.0 mph ESE3.2 kmh ESE 3.0 mph4.8 kmh 30.05 in1017.6 mb 0.00 in0.0 mm 0.00 in0.0 mm 0.00 in0.0 mm
08:29 PM 37.0°F2.8°C 34.4°F1.3°C 90% 3.0 mph ESE4.8 kmh ESE 4.0 mph6.4 kmh 30.05 in1017.6 mb 0.00 in0.0 mm 0.00 in0.0 mm 0.00 in0.0 mm
08:34 PM 36.9°F2.7°C 34.2°F1.2°C 90% 2.0 mph ESE3.2 kmh ESE 2.0 mph3.2 kmh 30.04 in1017.3 mb 0.00 in0.0 mm 0.00 in0.0 mm 0.00 in0.0 mm
08:39 PM 36.9°F2.7°C 34.2°F1.2°C 90% 2.0 mph ESE3.2 kmh ESE 3.0 mph4.8 kmh 30.04 in1017.3 mb 0.00 in0.0 mm 0.00 in0.0 mm 0.00 in0.0 mm
08:44 PM 36.9°F2.7°C 34.2°F1.2°C 90% 2.0 mph ESE3.2 kmh ESE 2.0 mph3.2 kmh 30.04 in1017.3 mb 0.00 in0.0 mm 0.00 in0.0 mm 0.00 in0.0 mm
08:49 PM 36.9°F2.7°C 34.5°F1.4°C 91% 3.0 mph ESE4.8 kmh ESE 4.0 mph6.4 kmh 30.04 in1017.3 mb 0.00 in0.0 mm 0.00 in0.0 mm 0.00 in0.0 mm
08:54 PM 36.7°F2.6°C 34.3°F1.3°C 91% 1.0 mph ESE1.6 kmh ESE 2.0 mph3.2 kmh 30.04 in1017.3 mb 0.00 in0.0 mm 0.00 in0.0 mm 0.00 in0.0 mm
08:59 PM 36.5°F2.5°C 34.1°F1.2°C 91% 2.0 mph ESE3.2 kmh ESE 3.0 mph4.8 kmh 30.04 in1017.3 mb 0.00 in0.0 mm 0.00 in0.0 mm 0.00 in0.0 mm
09:04 PM 36.3°F2.4°C 34.0°F1.1°C 91% Calm Calm 1.0 mph1.6 kmh 30.04 in1017.3 mb 0.00 in0.0 mm 0.00 in0.0 mm 0.00 in0.0 mm
09:09 PM 36.1°F2.3°C 33.8°F1.0°C 91% 2.0 mph ESE3.2 kmh ESE 2.0 mph3.2 kmh 30.04 in1017.3 mb 0.00 in0.0 mm 0.00 in0.0 mm 0.00 in0.0 mm
09:14 PM 36.0°F2.2°C 33.6°F0.9°C 91% 1.0 mph ESE1.6 kmh ESE 1.0 mph1.6 kmh 30.04 in1017.3 mb 0.00 in0.0 mm 0.00 in0.0 mm 0.00 in0.0 mm
09:19 PM 36.0°F2.2°C 33.6°F0.9°C 91% 1.0 mph ESE1.6 kmh ESE 2.0 mph3.2 kmh 30.04 in1017.3 mb 0.00 in0.0 mm 0.00 in0.0 mm 0.00 in0.0 mm
09:24 PM 36.0°F2.2°C 33.9°F1.1°C 92% 1.0 mph ESE1.6 kmh ESE 2.0 mph3.2 kmh 30.04 in1017.3 mb 0.00 in0.0 mm 0.00 in0.0 mm 0.00 in0.0 mm
09:29 PM 35.8°F2.1°C 33.7°F0.9°C 92% 1.0 mph ESE1.6 kmh ESE 2.0 mph3.2 kmh 30.03 in1016.9 mb 0.00 in0.0 mm 0.00 in0.0 mm 0.00 in0.0 mm
09:34 PM 35.8°F2.1°C 33.7°F0.9°C 92% 2.0 mph ESE3.2 kmh ESE 4.0 mph6.4 kmh 30.03 in1016.9 mb 0.00 in0.0 mm 0.00 in0.0 mm 0.00 in0.0 mm
09:39 PM 35.8°F2.1°C 33.7°F0.9°C 92% 2.0 mph SE3.2 kmh SE 3.0 mph4.8 kmh 30.03 in1016.9 mb 0.00 in0.0 mm 0.00 in0.0 mm 0.00 in0.0 mm
09:44 PM 35.8°F2.1°C 33.7°F0.9°C 92% 2.0 mph ESE3.2 kmh ESE 3.0 mph4.8 kmh 30.03 in1016.9 mb 0.00 in0.0 mm 0.00 in0.0 mm 0.00 in0.0 mm
09:49 PM 35.8°F2.1°C 33.7°F0.9°C 92% 1.0 mph SE1.6 kmh SE 2.0 mph3.2 kmh 30.03 in1016.9 mb 0.00 in0.0 mm 0.00 in0.0 mm 0.00 in0.0 mm
09:54 PM 36.5°F2.5°C 34.7°F1.5°C 93% 2.0 mph SE3.2 kmh SE 3.0 mph4.8 kmh 30.03 in1016.9 mb 0.00 in0.0 mm 0.00 in0.0 mm 0.00 in0.0 mm
09:59 PM 37.0°F2.8°C 34.9°F1.6°C 92% 4.0 mph SE6.4 kmh SE 8.0 mph12.9 kmh 30.03 in1016.9 mb 0.00 in0.0 mm 0.00 in0.0 mm 0.00 in0.0 mm
10:04 PM 37.4°F3.0°C 35.0°F1.7°C 91% 3.0 mph SE4.8 kmh SE 5.0 mph8.0 kmh 30.03 in1016.9 mb 0.00 in0.0 mm 0.00 in0.0 mm 0.00 in0.0 mm
10:09 PM 37.4°F3.0°C 35.0°F1.7°C 91% 4.0 mph SE6.4 kmh SE 8.0 mph12.9 kmh 30.03 in1016.9 mb 0.00 in0.0 mm 0.00 in0.0 mm 0.00 in0.0 mm
10:14 PM 37.4°F3.0°C 35.0°F1.7°C 91% 4.0 mph SE6.4 kmh SE 4.0 mph6.4 kmh 30.03 in1016.9 mb 0.00 in0.0 mm 0.00 in0.0 mm 0.00 in0.0 mm
10:19 PM 37.6°F3.1°C 35.2°F1.8°C 91% 4.0 mph SE6.4 kmh SE 6.0 mph9.7 kmh 30.03 in1016.9 mb 0.00 in0.0 mm 0.00 in0.0 mm 0.00 in0.0 mm
10:24 PM 37.6°F3.1°C 35.2°F1.8°C 91% 2.0 mph SE3.2 kmh SE 3.0 mph4.8 kmh 30.03 in1016.9 mb 0.00 in0.0 mm 0.00 in0.0 mm 0.00 in0.0 mm
10:29 PM 37.2°F2.9°C 34.8°F1.6°C 91% 4.0 mph SSE6.4 kmh SSE 6.0 mph9.7 kmh 30.03 in1016.9 mb 0.00 in0.0 mm 0.00 in0.0 mm 0.00 in0.0 mm
10:34 PM 37.0°F2.8°C 34.7°F1.5°C 91% 3.0 mph SSE4.8 kmh SSE 7.0 mph11.3 kmh 30.03 in1016.9 mb 0.00 in0.0 mm 0.00 in0.0 mm 0.00 in0.0 mm
10:39 PM 37.0°F2.8°C 34.7°F1.5°C 91% 4.0 mph SE6.4 kmh SE 6.0 mph9.7 kmh 30.02 in1016.6 mb 0.00 in0.0 mm 0.00 in0.0 mm 0.00 in0.0 mm
10:44 PM 37.0°F2.8°C 34.7°F1.5°C 91% 7.0 mph SE11.3 kmh SE 10.0 mph16.1 kmh 30.02 in1016.6 mb 0.00 in0.0 mm 0.00 in0.0 mm 0.00 in0.0 mm
10:49 PM 37.0°F2.8°C 34.7°F1.5°C 91% 4.0 mph SE6.4 kmh SE 6.0 mph9.7 kmh 30.02 in1016.6 mb 0.00 in0.0 mm 0.00 in0.0 mm 0.00 in0.0 mm
10:54 PM 37.0°F2.8°C 34.7°F1.5°C 91% 4.0 mph SSE6.4 kmh SSE 7.0 mph11.3 kmh 30.01 in1016.3 mb 0.00 in0.0 mm 0.00 in0.0 mm 0.00 in0.0 mm
10:59 PM 37.2°F2.9°C 35.1°F1.7°C 92% 5.0 mph SE8.0 kmh SE 8.0 mph12.9 kmh 30.01 in1016.3 mb 0.00 in0.0 mm 0.00 in0.0 mm 0.00 in0.0 mm
11:04 PM 37.6°F3.1°C 35.5°F1.9°C 92% 3.0 mph S4.8 kmh S 5.0 mph8.0 kmh 30.02 in1016.6 mb 0.00 in0.0 mm 0.00 in0.0 mm 0.00 in0.0 mm
11:09 PM 37.6°F3.1°C 35.2°F1.8°C 91% 4.0 mph SSE6.4 kmh SSE 7.0 mph11.3 kmh 30.01 in1016.3 mb 0.00 in0.0 mm 0.00 in0.0 mm 0.00 in0.0 mm
11:14 PM 37.8°F3.2°C 35.4°F1.9°C 91% 3.0 mph SSE4.8 kmh SSE 6.0 mph9.7 kmh 30.01 in1016.3 mb 0.00 in0.0 mm 0.00 in0.0 mm 0.00 in0.0 mm
11:19 PM 37.8°F3.2°C 35.4°F1.9°C 91% 5.0 mph SE8.0 kmh SE 9.0 mph14.5 kmh 30.01 in1016.3 mb 0.00 in0.0 mm 0.00 in0.0 mm 0.00 in0.0 mm
11:24 PM 37.8°F3.2°C 35.4°F1.9°C 91% 5.0 mph SSE8.0 kmh SSE 9.0 mph14.5 kmh 30.01 in1016.3 mb 0.00 in0.0 mm 0.00 in0.0 mm 0.00 in0.0 mm
11:29 PM 37.9°F3.3°C 35.8°F2.1°C 92% 4.0 mph SSE6.4 kmh SSE 5.0 mph8.0 kmh 30.01 in1016.3 mb 0.00 in0.0 mm 0.00 in0.0 mm 0.00 in0.0 mm
11:34 PM 37.9°F3.3°C 35.8°F2.1°C 92% 6.0 mph SSW9.7 kmh SSW 12.0 mph19.3 kmh 30.01 in1016.3 mb 0.00 in0.0 mm 0.00 in0.0 mm 0.00 in0.0 mm
11:39 PM 38.1°F3.4°C 35.7°F2.1°C 91% 4.0 mph SE6.4 kmh SE 7.0 mph11.3 kmh 30.01 in1016.3 mb 0.00 in0.0 mm 0.00 in0.0 mm 0.00 in0.0 mm
11:44 PM 38.1°F3.4°C 35.7°F2.1°C 91% 7.0 mph S11.3 kmh S 12.0 mph19.3 kmh 30.01 in1016.3 mb 0.00 in0.0 mm 0.00 in0.0 mm 0.00 in0.0 mm
11:49 PM 38.1°F3.4°C 35.7°F2.1°C 91% 8.0 mph SSW12.9 kmh SSW 13.0 mph20.9 kmh 30.01 in1016.3 mb 0.00 in0.0 mm 0.00 in0.0 mm 0.00 in0.0 mm
11:54 PM 38.1°F3.4°C 35.7°F2.1°C 91% 9.0 mph S14.5 kmh S 13.0 mph20.9 kmh 30.01 in1016.3 mb 0.00 in0.0 mm 0.00 in0.0 mm 0.00 in0.0 mm
11:59 PM 38.1°F3.4°C 35.7°F2.1°C 91% 6.0 mph S9.7 kmh S 10.0 mph16.1 kmh 30.01 in1016.3 mb 0.00 in0.0 mm 0.00 in0.0 mm 0.00 in0.0 mm